SBSL/SLZ METAR and TAF weather

Enter ICAO airport designator
Station Type Date Time Source
SBSL METAR 2019/07/18 11:00 UTC NOAA

SBSL 181100Z 07005KT 9999 FEW015 27/25 Q1015


Station Type Date Time Source
SBSL Decoded METAR 2019/07/18 11:00 UTC NOAA

Sao Luiz Aeroporto , Brazil (SBSL) 02-36S 044-14W 53M
Jul 18, 2019 - 07:00 AM EDT / 2019.07.18 1100 UTC
Wind: from the ENE (070 degrees) at 6 MPH (5 KT):0
Visibility: greater than 7 mile(s):0
Sky conditions: mostly clear
Temperature: 80 F (27 C)
Dew Point: 77 F (25 C)
Relative Humidity: 88%
Pressure (altimeter): 29.97 in. Hg (1015 hPa)
ob: SBSL 181100Z 07005KT 9999 FEW015 27/25 Q1015
cycle: 11

Station Type Date Time Source
SBSL TAF 2019/07/18 12:33 UTC NOAA

TAF SBSL 180930Z 1812/1912 12005KT 9999 SCT020 TX30/1817Z TN25/1908Z
BECMG 1812/1814 08005KT
BECMG 1816/1818 06005KT
BECMG 1819/1821 08005KT PROB30 1821/1823 TS SCT030 FEW040CB
BECMG 1906/1908 14005KT
BECMG 1909/1911 12005KT
RMK PGW

Example: see airport list